createdAt,value
2023-01-05T00:01:04.095Z,98263.23
2023-01-05T00:03:32.042Z,98266.39
2023-01-05T00:06:03.968Z,98263.03
2023-01-05T00:08:37.178Z,98255.94
2023-01-05T00:11:31.927Z,98255.15
2023-01-05T00:14:18.662Z,98248.66
2023-01-05T00:17:05.920Z,98243.75
2023-01-05T00:19:52.160Z,98242.73
2023-01-05T00:22:30.762Z,98239.81
2023-01-05T00:25:02.098Z,98238.40
2023-01-05T00:27:32.997Z,98236.34
2023-01-05T00:30:01.092Z,98236.73
2023-01-05T00:32:29.348Z,98237.58
2023-01-05T00:34:58.324Z,98233.06
2023-01-05T00:37:27.755Z,98228.75
2023-01-05T00:39:55.625Z,98230.54
2023-01-05T00:42:23.834Z,98229.44
2023-01-05T00:44:51.676Z,98228.91
2023-01-05T00:47:19.549Z,98225.44
2023-01-05T00:49:47.386Z,98220.85
2023-01-05T00:52:16.165Z,98221.89
2023-01-05T00:54:44.203Z,98215.17
2023-01-05T00:57:12.818Z,98206.77
2023-01-05T00:59:40.777Z,98190.02
2023-01-05T01:02:09.277Z,98188.82
2023-01-05T01:04:37.611Z,98184.60
2023-01-05T01:07:06.061Z,98180.91
2023-01-05T01:09:34.370Z,98174.20
2023-01-05T01:12:02.927Z,98174.33
2023-01-05T01:14:30.841Z,98175.13
2023-01-05T01:16:58.730Z,98180.64
2023-01-05T01:19:28.547Z,98174.83
2023-01-05T01:21:56.494Z,98163.82
2023-01-05T01:24:27.729Z,98158.41
2023-01-05T01:26:55.630Z,98162.38
2023-01-05T01:29:24.338Z,98161.17
2023-01-05T01:31:53.638Z,98162.45
2023-01-05T01:34:21.637Z,98165.83
2023-01-05T01:36:49.454Z,98164.89
2023-01-05T01:39:21.558Z,98165.88
2023-01-05T01:41:54.541Z,98159.37
2023-01-05T01:44:41.508Z,98142.73
2023-01-05T01:47:12.765Z,98129.54
2023-01-05T01:49:41.019Z,98115.86
2023-01-05T01:52:09.519Z,98108.15
2023-01-05T01:54:37.402Z,98107.67
2023-01-05T01:57:06.499Z,98103.83
2023-01-05T01:59:34.378Z,98093.48
2023-01-05T02:02:02.604Z,98085.72
2023-01-05T02:04:32.639Z,98078.54
2023-01-05T02:07:02.311Z,98084.84
2023-01-05T02:09:31.672Z,98079.81
2023-01-05T02:12:05.905Z,98075.59
2023-01-05T02:14:33.736Z,98067.94
2023-01-05T02:17:10.436Z,98061.45
2023-01-05T02:19:41.375Z,98063.30
2023-01-05T02:22:21.401Z,98052.95
2023-01-05T02:24:55.274Z,98046.56
2023-01-05T02:27:31.159Z,98042.27
2023-01-05T02:30:08.218Z,98036.14
2023-01-05T02:32:39.060Z,98022.34
2023-01-05T02:35:09.961Z,98016.04
2023-01-05T02:37:37.803Z,98010.05
2023-01-05T02:40:08.838Z,97990.77
2023-01-05T02:42:39.160Z,97990.59
2023-01-05T02:45:08.486Z,97988.08
2023-01-05T02:47:38.304Z,97975.38
2023-01-05T02:50:22.544Z,97967.89
2023-01-05T02:52:54.738Z,97969.02
2023-01-05T02:55:28.258Z,97967.96
2023-01-05T02:57:59.807Z,97958.08
2023-01-05T03:00:36.501Z,97949.70
2023-01-05T03:03:11.258Z,97943.19
2023-01-05T03:05:43.665Z,97947.23
2023-01-05T03:08:26.270Z,97942.44
2023-01-05T03:11:22.241Z,97933.63
2023-01-05T03:13:57.072Z,97929.74
2023-01-05T03:16:28.328Z,97930.91
2023-01-05T03:19:18.145Z,97927.58
2023-01-05T03:22:05.774Z,97926.81
2023-01-05T03:24:55.972Z,97926.09
2023-01-05T03:27:43.019Z,97930.29
2023-01-05T03:30:31.027Z,97924.73
2023-01-05T03:33:23.269Z,97917.41
2023-01-05T03:35:54.680Z,97909.26
2023-01-05T03:38:28.471Z,97914.75
2023-01-05T03:40:58.457Z,97908.17
2023-01-05T03:43:26.858Z,97903.73
2023-01-05T03:45:58.115Z,97904.80
2023-01-05T03:48:28.797Z,97908.46
2023-01-05T03:50:57.266Z,97904.44
2023-01-05T03:53:26.301Z,97906.52
2023-01-05T03:55:54.486Z,97907.13
2023-01-05T03:58:24.125Z,97898.98
2023-01-05T04:00:52.878Z,97893.20
2023-01-05T04:03:25.080Z,97897.75
2023-01-05T04:05:56.348Z,97897.91
2023-01-05T04:08:26.227Z,97904.85
2023-01-05T04:10:54.519Z,97903.61
2023-01-05T04:13:22.403Z,97898.41
2023-01-05T04:15:51.164Z,97905.91
2023-01-05T04:18:19.403Z,97905.18
2023-01-05T04:20:47.224Z,97901.58
2023-01-05T04:23:15.199Z,97887.68
2023-01-05T04:25:43.457Z,97876.47
2023-01-05T04:28:17.811Z,97874.18
2023-01-05T04:30:45.920Z,97876.98
2023-01-05T04:33:13.825Z,97880.23
2023-01-05T04:35:41.733Z,97882.20
2023-01-05T04:38:09.935Z,97878.73
2023-01-05T04:40:37.917Z,97869.26
2023-01-05T04:43:06.337Z,97862.19
2023-01-05T04:45:37.344Z,97853.59
2023-01-05T04:48:07.050Z,97849.98
2023-01-05T04:50:34.904Z,97841.51
2023-01-05T04:53:03.144Z,97827.60
2023-01-05T04:55:31.237Z,97817.86
2023-01-05T04:57:59.451Z,97817.52
2023-01-05T05:00:27.389Z,97808.70
2023-01-05T05:02:56.025Z,97796.71
2023-01-05T05:05:24.169Z,97790.73
2023-01-05T05:07:53.612Z,97784.88
2023-01-05T05:10:23.401Z,97787.13
2023-01-05T05:12:51.405Z,97787.00
2023-01-05T05:15:19.316Z,97785.00
2023-01-05T05:17:50.279Z,97780.63
2023-01-05T05:20:18.433Z,97786.66
2023-01-05T05:22:46.529Z,97784.02
2023-01-05T05:25:16.743Z,97775.09
2023-01-05T05:27:47.965Z,97771.39
2023-01-05T05:30:16.555Z,97772.65
2023-01-05T05:32:44.778Z,97771.11
2023-01-05T05:35:12.678Z,97767.41
2023-01-05T05:37:40.528Z,97760.48
2023-01-05T05:40:08.706Z,97766.94
2023-01-05T05:42:36.679Z,97762.13
2023-01-05T05:45:04.887Z,97761.85
2023-01-05T05:47:32.799Z,97764.77
2023-01-05T05:50:00.657Z,97768.17
2023-01-05T05:52:28.477Z,97757.98
2023-01-05T05:54:56.395Z,97768.40
2023-01-05T05:57:24.932Z,97759.88
2023-01-05T05:59:52.750Z,97764.20
2023-01-05T06:02:23.650Z,97757.25
2023-01-05T06:04:51.535Z,97761.74
2023-01-05T06:07:19.463Z,97765.42
2023-01-05T06:09:47.471Z,97770.48
2023-01-05T06:12:15.931Z,97760.65
2023-01-05T06:14:43.696Z,97755.34
2023-01-05T06:17:11.914Z,97754.80
2023-01-05T06:19:40.160Z,97747.04
2023-01-05T06:22:07.953Z,97735.79
2023-01-05T06:24:35.920Z,97735.16
2023-01-05T06:27:03.780Z,97743.25
2023-01-05T06:29:33.035Z,97740.06
2023-01-05T06:32:00.863Z,97741.13
2023-01-05T06:34:28.751Z,97741.70
2023-01-05T06:37:02.017Z,97738.92
2023-01-05T06:39:30.380Z,97733.63
2023-01-05T06:41:58.214Z,97717.89
2023-01-05T06:44:26.037Z,97717.81
2023-01-05T06:46:53.773Z,97714.89
2023-01-05T06:49:21.644Z,97710.14
2023-01-05T06:51:49.713Z,97716.13
2023-01-05T06:54:17.925Z,97725.74
2023-01-05T06:56:45.797Z,97740.67
2023-01-05T06:59:13.713Z,97733.91
2023-01-05T07:01:42.483Z,97729.30
2023-01-05T07:04:10.765Z,97728.23
2023-01-05T07:06:38.972Z,97728.29
2023-01-05T07:09:07.022Z,97724.75
2023-01-05T07:11:35.596Z,97730.27
2023-01-05T07:14:04.061Z,97731.95
2023-01-05T07:16:31.907Z,97720.77
2023-01-05T07:18:59.687Z,97699.93
2023-01-05T07:21:27.587Z,97702.55
2023-01-05T07:23:55.384Z,97703.16
2023-01-05T07:26:23.333Z,97696.84
2023-01-05T07:28:53.295Z,97705.47
2023-01-05T07:31:21.520Z,97720.45
2023-01-05T07:33:49.512Z,97715.90
2023-01-05T07:36:17.955Z,97710.41
2023-01-05T07:38:45.803Z,97700.03
2023-01-05T07:41:13.883Z,97699.05
2023-01-05T07:43:41.988Z,97697.70
2023-01-05T07:46:11.988Z,97703.09
2023-01-05T07:48:42.763Z,97693.30
2023-01-05T07:51:11.480Z,97689.05
2023-01-05T07:53:44.338Z,97690.52
2023-01-05T07:56:13.444Z,97680.77
2023-01-05T07:58:41.419Z,97656.36
2023-01-05T08:01:12.313Z,97657.59
2023-01-05T08:03:40.632Z,97658.83
2023-01-05T08:06:12.864Z,97645.27
2023-01-05T08:08:41.425Z,97629.80
2023-01-05T08:11:11.087Z,97632.70
2023-01-05T08:13:57.655Z,97640.36
2023-01-05T08:16:30.409Z,97622.49
2023-01-05T08:18:59.174Z,97620.05
2023-01-05T08:21:27.072Z,97621.78
2023-01-05T08:23:55.658Z,97624.45
2023-01-05T08:26:24.306Z,97626.73
2023-01-05T08:28:53.822Z,97612.71
2023-01-05T08:31:23.682Z,97603.23
2023-01-05T08:33:55.238Z,97608.70
2023-01-05T08:36:24.034Z,97612.36
2023-01-05T08:38:53.719Z,97615.00
2023-01-05T08:41:22.922Z,97614.67
2023-01-05T08:43:52.181Z,97612.17
2023-01-05T08:46:23.685Z,97607.38
2023-01-05T08:48:52.564Z,97596.92
2023-01-05T08:51:21.107Z,97586.83
2023-01-05T08:53:49.274Z,97590.39
2023-01-05T08:56:17.505Z,97591.80
2023-01-05T08:58:45.850Z,97576.44
2023-01-05T09:01:17.656Z,97559.98
2023-01-05T09:03:46.337Z,97559.83
2023-01-05T09:06:14.398Z,97557.38
2023-01-05T09:08:43.096Z,97545.68
2023-01-05T09:11:12.354Z,97530.73
2023-01-05T09:13:40.884Z,97525.80
2023-01-05T09:16:10.569Z,97519.83
2023-01-05T09:18:40.121Z,97507.11
2023-01-05T09:21:08.593Z,97502.57
2023-01-05T09:23:37.129Z,97502.23
2023-01-05T09:26:05.945Z,97499.38
2023-01-05T09:28:35.710Z,97493.59
2023-01-05T09:31:11.829Z,97481.77
2023-01-05T09:33:40.554Z,97470.34
2023-01-05T09:36:10.463Z,97468.51
2023-01-05T09:38:46.865Z,97453.37
2023-01-05T09:41:15.529Z,97454.98
2023-01-05T09:43:44.241Z,97450.53
2023-01-05T09:46:15.746Z,97442.66
2023-01-05T09:48:48.649Z,97457.52
2023-01-05T09:51:16.497Z,97451.45
2023-01-05T09:53:45.147Z,97446.61
2023-01-05T09:56:42.353Z,97432.58
2023-01-05T09:59:24.987Z,97427.95
2023-01-05T10:01:54.425Z,97411.02
2023-01-05T10:04:30.315Z,97405.67
2023-01-05T10:07:05.945Z,97396.14
2023-01-05T10:09:39.227Z,97387.34
2023-01-05T10:12:32.360Z,97383.13
2023-01-05T10:15:00.776Z,97372.73
2023-01-05T10:17:41.680Z,97380.81
2023-01-05T10:20:14.465Z,97371.79
2023-01-05T10:22:48.791Z,97360.64
2023-01-05T10:25:35.699Z,97349.58
2023-01-05T10:28:06.171Z,97352.27
2023-01-05T10:31:06.115Z,97345.69
2023-01-05T10:33:52.006Z,97341.66
2023-01-05T10:37:06.762Z,97334.11
2023-01-05T10:39:28.206Z,97325.16
2023-01-05T10:42:02.846Z,97315.23
2023-01-05T10:44:47.700Z,97307.61
2023-01-05T10:47:17.159Z,97302.52
2023-01-05T10:49:54.179Z,97297.02
2023-01-05T10:52:22.880Z,97291.89
2023-01-05T10:54:58.068Z,97286.26
2023-01-05T10:57:34.713Z,97278.55
2023-01-05T11:00:18.421Z,97273.74
2023-01-05T11:02:56.510Z,97269.31
2023-01-05T11:05:27.836Z,97259.26
2023-01-05T11:07:58.727Z,97256.14
2023-01-05T11:10:30.495Z,97253.95
2023-01-05T11:13:03.510Z,97238.79
2023-01-05T11:15:32.756Z,97243.61
2023-01-05T11:18:00.912Z,97237.23
2023-01-05T11:20:29.483Z,97230.38
2023-01-05T11:22:58.818Z,97223.52
2023-01-05T11:25:31.204Z,97222.80
2023-01-05T11:28:06.937Z,97212.98
2023-01-05T11:30:35.504Z,97205.50
2023-01-05T11:33:15.344Z,97213.38
2023-01-05T11:35:46.728Z,97209.89
2023-01-05T11:38:21.699Z,97204.29
2023-01-05T11:40:51.803Z,97209.98
2023-01-05T11:43:22.349Z,97202.35
2023-01-05T11:45:55.990Z,97195.86
2023-01-05T11:48:29.699Z,97196.02
2023-01-05T11:50:58.245Z,97192.15
2023-01-05T11:53:35.983Z,97189.64
2023-01-05T11:56:23.226Z,97187.49
2023-01-05T11:58:58.033Z,97192.30
2023-01-05T12:01:32.598Z,97193.67
2023-01-05T12:04:06.604Z,97200.55
2023-01-05T12:06:37.053Z,97198.47
2023-01-05T12:09:09.851Z,97199.65
2023-01-05T12:11:44.112Z,97210.23
2023-01-05T12:14:30.713Z,97219.39
2023-01-05T12:17:02.293Z,97237.23
2023-01-05T12:19:49.000Z,97243.40
2023-01-05T12:22:26.295Z,97252.17
2023-01-05T12:24:57.871Z,97284.85
2023-01-05T12:27:39.510Z,97289.02
2023-01-05T12:34:01.668Z,97273.61
2023-01-05T12:36:09.652Z,97282.60
2023-01-05T12:38:46.048Z,97300.13
2023-01-05T12:41:23.505Z,97314.15
2023-01-05T12:44:04.202Z,97328.58
2023-01-05T12:46:47.475Z,97346.30
2023-01-05T12:49:24.177Z,97348.66
2023-01-05T12:52:06.732Z,97348.89
2023-01-05T12:54:45.932Z,97345.77
2023-01-05T12:57:27.225Z,97323.89
2023-01-05T13:00:00.693Z,97297.27
2023-01-05T13:02:31.848Z,97291.96
2023-01-05T13:05:17.637Z,97298.21
2023-01-05T13:07:52.519Z,97307.48
2023-01-05T13:10:27.785Z,97305.03
2023-01-05T13:12:57.445Z,97322.31
2023-01-05T13:15:30.112Z,97325.51
2023-01-05T13:17:59.222Z,97323.68
2023-01-05T13:20:40.897Z,97321.55
2023-01-05T13:23:16.513Z,97328.36
2023-01-05T13:26:05.869Z,97348.85
2023-01-05T13:28:35.204Z,97342.48
2023-01-05T13:31:12.291Z,97351.23
2023-01-05T13:34:07.512Z,97345.84
2023-01-05T13:36:49.708Z,97349.34
2023-01-05T13:39:36.952Z,97349.20
2023-01-05T13:42:28.161Z,97330.52
2023-01-05T13:45:23.855Z,97271.66
2023-01-05T13:47:57.197Z,97284.85
2023-01-05T13:50:37.723Z,97301.48
2023-01-05T13:53:08.617Z,97311.21
2023-01-05T13:55:40.813Z,97317.36
2023-01-05T13:58:23.656Z,97312.40
2023-01-05T14:00:53.131Z,97297.93
2023-01-05T14:03:29.419Z,97288.67
2023-01-05T14:05:59.846Z,97290.23
2023-01-05T14:08:29.345Z,97291.98
2023-01-05T14:11:16.876Z,97305.77
2023-01-05T14:13:45.265Z,97301.66
2023-01-05T14:16:31.942Z,97296.13
2023-01-05T14:19:14.826Z,97280.14
2023-01-05T14:21:54.125Z,97270.70
2023-01-05T14:27:13.285Z,97276.61
2023-01-05T14:29:44.026Z,97268.30
2023-01-05T14:32:13.787Z,97256.73
2023-01-05T14:34:46.253Z,97273.10
2023-01-05T14:37:22.986Z,97291.38
2023-01-05T14:40:00.341Z,97294.81
2023-01-05T14:42:40.701Z,97298.61
2023-01-05T14:45:20.329Z,97300.68
2023-01-05T14:47:50.094Z,97302.33
2023-01-05T14:50:36.940Z,97301.66
2023-01-05T14:53:20.747Z,97310.77
2023-01-05T14:55:51.626Z,97322.64
2023-01-05T14:58:48.989Z,97332.45
2023-01-05T15:01:21.191Z,97329.16
2023-01-05T15:04:03.727Z,97327.58
2023-01-05T15:06:33.156Z,97329.46
2023-01-05T15:09:20.800Z,97329.75
2023-01-05T15:11:48.870Z,97332.60
2023-01-05T15:14:39.616Z,97345.56
2023-01-05T15:17:27.140Z,97339.30
2023-01-05T15:20:09.673Z,97331.98
2023-01-05T15:22:50.411Z,97348.29
2023-01-05T15:25:46.040Z,97356.66
2023-01-05T15:28:33.211Z,97349.23
2023-01-05T15:31:16.444Z,97346.41
2023-01-05T15:34:00.525Z,97331.88
2023-01-05T15:36:30.237Z,97336.66
2023-01-05T15:38:59.795Z,97339.24
2023-01-05T15:41:28.917Z,97348.52
2023-01-05T15:43:58.702Z,97335.78
2023-01-05T15:46:31.173Z,97332.36
2023-01-05T15:48:59.100Z,97336.29
2023-01-05T15:51:32.227Z,97339.95
2023-01-05T15:54:01.696Z,97344.89
2023-01-05T15:56:40.529Z,97335.45
2023-01-05T15:59:27.626Z,97332.83
2023-01-05T16:01:56.473Z,97324.42
2023-01-05T16:04:24.711Z,97331.25
2023-01-05T16:07:02.007Z,97334.89
2023-01-05T16:09:38.442Z,97341.33
2023-01-05T16:12:09.333Z,97349.38
2023-01-05T16:14:44.245Z,97341.08
2023-01-05T16:17:16.687Z,97338.75
2023-01-05T16:19:47.661Z,97341.27
2023-01-05T16:22:24.355Z,97338.52
2023-01-05T16:25:02.399Z,97350.67
2023-01-05T16:27:31.736Z,97346.19
2023-01-05T16:30:18.411Z,97348.67
2023-01-05T16:32:55.040Z,97353.70
2023-01-05T16:35:44.031Z,97352.09
2023-01-05T16:38:11.860Z,97360.54
2023-01-05T16:40:46.065Z,97368.89
2023-01-05T16:43:25.255Z,97368.98
2023-01-05T16:45:58.429Z,97366.32
2023-01-05T16:48:41.663Z,97365.83
2023-01-05T16:51:15.099Z,97369.00
2023-01-05T16:53:48.669Z,97382.43
2023-01-05T16:56:42.530Z,97375.68
2023-01-05T16:59:29.980Z,97369.09
2023-01-05T17:01:58.693Z,97371.38
2023-01-05T17:04:27.215Z,97368.73
2023-01-05T17:06:58.058Z,97362.83
2023-01-05T17:09:28.314Z,97359.77
2023-01-05T17:11:56.729Z,97354.45
2023-01-05T17:14:27.271Z,97349.91
2023-01-05T17:16:55.617Z,97357.95
2023-01-05T17:19:23.979Z,97361.96
2023-01-05T17:22:04.588Z,97375.75
2023-01-05T17:24:33.429Z,97380.18
2023-01-05T17:27:02.872Z,97380.44
2023-01-05T17:29:31.771Z,97376.48
2023-01-05T17:32:01.069Z,97373.58
2023-01-05T17:34:29.119Z,97372.01
2023-01-05T17:36:59.767Z,97359.58
2023-01-05T17:39:27.707Z,97362.77
2023-01-05T17:42:15.610Z,97369.06
2023-01-05T17:44:44.001Z,97362.26
2023-01-05T17:47:11.836Z,97365.72
2023-01-05T17:49:40.308Z,97368.23
2023-01-05T17:52:08.659Z,97364.63
2023-01-05T17:54:41.168Z,97368.51
2023-01-05T17:57:11.492Z,97375.64
2023-01-05T18:02:13.296Z,97376.85
2023-01-05T18:04:41.970Z,97383.02
2023-01-05T18:07:10.070Z,97383.45
2023-01-05T18:09:38.623Z,97382.20
2023-01-05T18:12:06.675Z,97385.90
2023-01-05T18:14:34.850Z,97391.36
2023-01-05T18:17:04.002Z,97385.60
2023-01-05T18:19:33.500Z,97376.63
2023-01-05T18:22:04.768Z,97368.33
2023-01-05T18:24:32.554Z,97366.76
2023-01-05T18:27:07.076Z,97374.86
2023-01-05T18:29:35.492Z,97363.95
2023-01-05T18:32:04.327Z,97369.57
2023-01-05T18:34:34.856Z,97367.85
2023-01-05T18:37:06.440Z,97372.92
2023-01-05T18:39:39.607Z,97373.77
2023-01-05T18:42:10.382Z,97380.30
2023-01-05T18:44:38.726Z,97385.16
2023-01-05T18:47:07.124Z,97381.20
2023-01-05T18:49:35.037Z,97380.80
2023-01-05T18:52:03.058Z,97387.14
2023-01-05T18:54:31.293Z,97388.27
2023-01-05T18:56:59.362Z,97387.34
2023-01-05T18:59:27.520Z,97384.30
2023-01-05T19:01:59.155Z,97378.66
2023-01-05T19:04:27.549Z,97368.85
2023-01-05T19:06:56.252Z,97371.37
2023-01-05T19:09:24.821Z,97376.26
2023-01-05T19:11:53.087Z,97380.51
2023-01-05T19:14:21.642Z,97384.31
2023-01-05T19:16:51.321Z,97379.53
2023-01-05T19:19:21.080Z,97381.71
2023-01-05T19:21:49.109Z,97374.27
2023-01-05T19:24:19.451Z,97377.05
2023-01-05T19:26:48.836Z,97382.48
2023-01-05T19:29:18.684Z,97392.73
2023-01-05T19:31:48.058Z,97396.61
2023-01-05T19:34:19.652Z,97389.74
2023-01-05T19:36:48.148Z,97391.14
2023-01-05T19:39:20.963Z,97381.65
2023-01-05T19:41:51.457Z,97380.98
2023-01-05T19:44:20.566Z,97371.07
2023-01-05T19:46:51.993Z,97380.38
2023-01-05T19:49:24.325Z,97376.56
2023-01-05T19:51:53.052Z,97372.45
2023-01-05T19:54:23.515Z,97376.02
2023-01-05T19:56:51.603Z,97384.41
2023-01-05T19:59:26.480Z,97396.41
2023-01-05T20:01:56.358Z,97399.40
2023-01-05T20:04:24.691Z,97405.22
2023-01-05T20:06:54.865Z,97418.55
2023-01-05T20:09:22.806Z,97428.33
2023-01-05T20:11:54.861Z,97420.38
2023-01-05T20:14:31.119Z,97415.30
2023-01-05T20:17:05.926Z,97421.55
2023-01-05T20:19:35.080Z,97412.97
2023-01-05T20:22:04.390Z,97407.25
2023-01-05T20:24:33.635Z,97418.08
2023-01-05T20:27:06.534Z,97405.35
2023-01-05T20:29:35.187Z,97418.66
2023-01-05T20:32:08.122Z,97433.61
2023-01-05T20:34:37.230Z,97427.41
2023-01-05T20:37:08.956Z,97424.13
2023-01-05T20:39:40.373Z,97421.05
2023-01-05T20:42:10.694Z,97429.60
2023-01-05T20:44:40.421Z,97425.08
2023-01-05T20:47:09.557Z,97420.98
2023-01-05T20:49:38.494Z,97411.45
2023-01-05T20:52:07.866Z,97413.72
2023-01-05T20:54:36.668Z,97400.06
2023-01-05T20:57:05.520Z,97401.46
2023-01-05T20:59:35.006Z,97410.38
2023-01-05T21:02:05.708Z,97406.50
2023-01-05T21:04:35.691Z,97406.27
2023-01-05T21:07:03.546Z,97399.67
2023-01-05T21:09:31.493Z,97396.76
2023-01-05T21:11:59.839Z,97399.41
2023-01-05T21:14:28.319Z,97402.08
2023-01-05T21:16:56.399Z,97396.52
2023-01-05T21:19:25.075Z,97390.70
2023-01-05T21:21:54.614Z,97391.73
2023-01-05T21:24:25.587Z,97402.19
2023-01-05T21:26:54.139Z,97409.86
2023-01-05T21:29:26.212Z,97424.58
2023-01-05T21:31:55.954Z,97424.91
2023-01-05T21:34:24.690Z,97432.98
2023-01-05T21:36:54.852Z,97431.31
2023-01-05T21:39:27.019Z,97437.93
2023-01-05T21:42:13.756Z,97440.02
2023-01-05T21:44:41.755Z,97444.80
2023-01-05T21:47:10.272Z,97443.90
2023-01-05T21:49:39.115Z,97447.14
2023-01-05T21:52:25.893Z,97448.73
2023-01-05T21:55:12.315Z,97445.36
2023-01-05T21:57:40.895Z,97447.46
2023-01-05T22:00:08.974Z,97459.58
2023-01-05T22:02:38.393Z,97465.90
2023-01-05T22:05:07.604Z,97466.83
2023-01-05T22:07:35.558Z,97466.48
2023-01-05T22:10:03.787Z,97463.15
2023-01-05T22:12:31.901Z,97470.64
2023-01-05T22:14:59.780Z,97458.40
2023-01-05T22:17:27.652Z,97462.68
2023-01-05T22:19:55.536Z,97471.27
2023-01-05T22:22:23.320Z,97471.66
2023-01-05T22:24:51.235Z,97480.21
2023-01-05T22:27:19.061Z,97479.05
2023-01-05T22:29:46.863Z,97471.27
2023-01-05T22:32:14.783Z,97469.17
2023-01-05T22:34:44.430Z,97467.81
2023-01-05T22:37:16.094Z,97460.58
2023-01-05T22:39:44.146Z,97460.08
2023-01-05T22:42:11.943Z,97467.36
2023-01-05T22:44:39.755Z,97474.38
2023-01-05T22:47:07.671Z,97466.34
2023-01-05T22:49:35.488Z,97468.88
2023-01-05T22:52:03.539Z,97467.48
2023-01-05T22:54:31.747Z,97467.24
2023-01-05T22:56:59.630Z,97482.17
2023-01-05T22:59:28.628Z,97476.40
2023-01-05T23:01:56.749Z,97481.61
2023-01-05T23:04:24.697Z,97489.42
2023-01-05T23:06:52.563Z,97491.38
2023-01-05T23:09:20.853Z,97487.79
2023-01-05T23:11:48.794Z,97479.38
2023-01-05T23:14:18.740Z,97487.80
2023-01-05T23:16:47.152Z,97490.59
2023-01-05T23:19:16.942Z,97491.98
2023-01-05T23:21:45.939Z,97505.49
2023-01-05T23:24:14.383Z,97505.34
2023-01-05T23:26:42.399Z,97510.15
2023-01-05T23:29:10.401Z,97512.27
2023-01-05T23:31:38.401Z,97512.14
2023-01-05T23:34:06.294Z,97514.27
2023-01-05T23:36:34.196Z,97524.17
2023-01-05T23:39:02.213Z,97523.30
2023-01-05T23:41:30.173Z,97519.17
2023-01-05T23:43:58.220Z,97522.89
2023-01-05T23:46:26.174Z,97532.98
2023-01-05T23:48:54.090Z,97538.21
2023-01-05T23:51:21.964Z,97520.61
2023-01-05T23:53:50.828Z,97520.42
2023-01-05T23:56:21.291Z,97527.50
2023-01-05T23:58:49.740Z,97539.26
